Portada
METAR-TAF:

METAR-TAF

Aeroports :

George Town, Grand Cayman, Illes Caiman

latitud: 19-17N, longitud: 081-21W, altitud: 3 m

Observació

L'informe es va fer fa 6 hores i 45 minuts, a les 03:00 UTC
Vent calma
Temperatura 26°C
Humitat 84%
Pressió 1013 hPa
Visibilitat 10 km o més
Escasses núvols a una alçada de 1600 ft, Cumulonimbus.
tempesta

METAR: MWCR 300300Z 00000KT 9999 TS FEW016CB 26/23 Q1013

Hora: 04:45 (09:45 UTC)

Pronòstic

L'informe es va fer fa 10 hores i 45 minuts, a les 23:00 UTC
Pronòstic vàlid del 30 a les 00 UTC al 30 a les 24 UTC
Vent 5 kt del Est
Visibilitat 10 km o més
Núvols disperses a una alçada de 1800 ft
Temporalment
l' 30 a les 06 UTC al 30 a les 10 UTC
Visibilitat: 9000 m
Núvols disperses a una alçada de 1600 ft, Cumulonimbus.
xàfecs de pluja

TAF: MWCR 292300Z 3000/3024 08005KT 9999 SCT018 TEMPO 3006/3010 9000 SHRA SCT016CB

Observacions i pronòstics meteorològics de més de 4000 aeroports (METAR i TAF).

Les estacions disponibles són els punts grocs i vermells al mapa.

Posi el ratolí al punt desitjat per veure el nom de l'estació.

Feu clic per veure les observacions i els pronòstics meteorològics.

Per canviar el mapa: feu clic els botons verds amb una creu de color negre per apropar; al botó verd amb un guió per allunyar la imatge; o en les fletxes verdes per a mapes adjacents.


METAR-TAF: